Aviation Digital Data Service (ADDS)

Output produced by METARs form (0844 UTC 27 September 2020)
found at http://aviationweather.gov/metar/data/
 
METAR text: KDKB 270835Z AUTO 20011KT 10SM CLR 19/16 A2968 RMK AO2 T01870158
Conditions at: KDKB (DE KALB , IL, US) observed 0835 UTC 27 September 2020
Temperature: 18.7°C (66°F)
Dewpoint: 15.8°C (60°F) [RH = 83%]
Pressure (altimeter): 29.68 inches Hg (1005.2 mb)
Winds: from the SSW (200 degrees) at 13 MPH (11 knots; 5.7 m/s)
Visibility: 10 or more miles (16+ km)
Ceiling: at least 12,000 feet AGL
Clouds: sky clear below 12,000 feet AGL
Weather: automated observation with no human augmentation;
there may or may not be significant weather present at this time